Time,TemperatureF,DewpointF,PressureIn,WindDirection,WindDirectionDegrees,WindSpeedMPH,WindSpeedGustMPH,Humidity,HourlyPrecipIn,Conditions,Clouds,dailyrainin,SoftwareType,DateUTC
2013-04-19 00:21:00,59.0,37.0,30.14,North,0,0.0,-999.0,43,0.00,,,-99.99,,2013-04-19 07:21:00,
2013-04-19 00:32:00,59.0,37.0,30.14,North,0,0.0,-999.0,43,0.00,,,-99.99,,2013-04-19 07:32:00,
2013-04-19 00:42:00,59.0,37.0,30.14,North,0,0.0,-999.0,43,0.00,,,-99.99,,2013-04-19 07:42:00,
2013-04-19 01:21:00,58.0,34.0,30.13,North,0,0.0,-999.0,40,0.00,,,-99.99,,2013-04-19 08:21:00,
2013-04-19 01:32:00,58.0,34.0,30.13,North,0,0.0,-999.0,40,0.00,,,-99.99,,2013-04-19 08:32:00,
2013-04-19 01:42:00,58.0,34.0,30.13,North,0,0.0,-999.0,40,0.00,,,-99.99,,2013-04-19 08:42:00,
2013-04-19 02:21:00,58.0,31.0,30.11,North,350,3.0,-999.0,35,0.00,,,-99.99,,2013-04-19 09:21:00,
2013-04-19 02:32:00,58.0,31.0,30.11,North,350,3.0,-999.0,35,0.00,,,-99.99,,2013-04-19 09:32:00,
2013-04-19 02:42:00,58.0,31.0,30.11,North,350,3.0,-999.0,35,0.00,,,-99.99,,2013-04-19 09:42:00,
2013-04-19 03:23:00,58.0,33.0,30.11,North,360,2.0,-999.0,38,0.00,,,-99.99,,2013-04-19 10:23:00,
2013-04-19 03:33:00,58.0,33.0,30.11,North,360,2.0,-999.0,38,0.00,,,-99.99,,2013-04-19 10:33:00,
2013-04-19 03:42:00,58.0,33.0,30.11,North,360,2.0,-999.0,38,0.00,,,-99.99,,2013-04-19 10:42:00,
2013-04-19 04:22:00,58.0,33.0,30.11,NNW,340,1.0,-999.0,38,0.00,,,-99.99,,2013-04-19 11:22:00,
2013-04-19 04:32:00,58.0,33.0,30.11,NNW,340,1.0,-999.0,38,0.00,,,-99.99,,2013-04-19 11:32:00,
2013-04-19 05:22:00,58.0,36.0,30.11,North,0,0.0,-999.0,44,0.00,,,-99.99,,2013-04-19 12:22:00,
2013-04-19 05:32:00,58.0,36.0,30.11,North,0,0.0,-999.0,44,0.00,,,-99.99,,2013-04-19 12:32:00,
2013-04-19 06:21:00,55.0,32.0,30.11,NNW,340,1.0,-999.0,41,0.00,,,-99.99,,2013-04-19 13:21:00,
2013-04-19 06:32:00,55.0,32.0,30.11,NNW,340,1.0,-999.0,41,0.00,,,-99.99,,2013-04-19 13:32:00,
2013-04-19 06:42:00,55.0,32.0,30.11,NNW,340,1.0,-999.0,41,0.00,,,-99.99,,2013-04-19 13:42:00,
2013-04-19 07:21:00,59.0,32.0,30.11,North,0,0.0,-999.0,36,0.00,,,-99.99,,2013-04-19 14:21:00,
2013-04-19 07:32:00,59.0,32.0,30.11,North,0,0.0,-999.0,36,0.00,,,-99.99,,2013-04-19 14:32:00,
2013-04-19 07:42:00,59.0,32.0,30.11,North,0,0.0,-999.0,36,0.00,,,-99.99,,2013-04-19 14:42:00,
2013-04-19 08:21:00,59.0,40.0,30.13,North,0,0.0,-999.0,50,0.00,,,-99.99,,2013-04-19 15:21:00,
2013-04-19 08:33:00,59.0,40.0,30.13,North,0,0.0,-999.0,50,0.00,,,-99.99,,2013-04-19 15:33:00,
2013-04-19 08:43:00,59.0,40.0,30.13,North,0,0.0,-999.0,50,0.00,,,-99.99,,2013-04-19 15:43:00,
2013-04-19 09:23:00,63.0,41.0,30.13,North,0,0.0,-999.0,45,0.00,,,-99.99,,2013-04-19 16:23:00,
2013-04-19 09:32:00,63.0,41.0,30.13,North,0,0.0,-999.0,45,0.00,,,-99.99,,2013-04-19 16:32:00,
2013-04-19 10:21:00,66.0,37.0,30.13,NNW,340,14.0,-999.0,34,0.00,,,-99.99,,2013-04-19 17:21:00,
2013-04-19 10:33:00,66.0,37.0,30.13,NNW,340,14.0,-999.0,34,0.00,,,-99.99,,2013-04-19 17:33:00,
2013-04-19 10:42:00,66.0,37.0,30.13,NNW,340,14.0,-999.0,34,0.00,,,-99.99,,2013-04-19 17:42:00,
2013-04-19 11:22:00,68.0,39.0,30.11,NNW,340,11.0,-999.0,35,0.00,,,-99.99,,2013-04-19 18:22:00,
2013-04-19 11:33:00,68.0,39.0,30.11,NNW,340,11.0,-999.0,35,0.00,,,-99.99,,2013-04-19 18:33:00,
2013-04-19 12:21:00,68.0,43.0,30.10,North,360,12.0,-999.0,41,0.00,,,-99.99,,2013-04-19 19:21:00,
2013-04-19 12:32:00,68.0,43.0,30.10,North,360,12.0,-999.0,41,0.00,,,-99.99,,2013-04-19 19:32:00,
2013-04-19 13:22:00,71.0,41.0,30.07,NNW,330,6.0,-999.0,34,0.00,,,-99.99,,2013-04-19 20:22:00,
2013-04-19 13:32:00,71.0,41.0,30.07,NNW,330,6.0,-999.0,34,0.00,,,-99.99,,2013-04-19 20:32:00,
2013-04-19 14:21:00,70.0,51.0,30.04,North,350,10.0,-999.0,51,0.00,,,-99.99,,2013-04-19 21:21:00,
2013-04-19 14:32:00,70.0,51.0,30.04,North,350,10.0,-999.0,51,0.00,,,-99.99,,2013-04-19 21:32:00,
2013-04-19 15:22:00,71.0,50.0,30.02,SSE,160,2.0,-999.0,47,0.00,,,-99.99,,2013-04-19 22:22:00,
2013-04-19 15:33:00,71.0,50.0,30.02,SSE,160,2.0,-999.0,47,0.00,,,-99.99,,2013-04-19 22:33:00,
2013-04-19 16:22:00,70.0,52.0,29.99,NNW,330,7.0,-999.0,52,0.00,,,-99.99,,2013-04-19 23:22:00,
2013-04-19 16:32:00,70.0,52.0,29.99,NNW,330,7.0,-999.0,52,0.00,,,-99.99,,2013-04-19 23:32:00,
2013-04-19 17:21:00,68.0,53.0,29.98,SSW,200,7.0,-999.0,58,0.00,,,-99.99,,2013-04-20 00:21:00,
2013-04-19 17:32:00,68.0,53.0,29.98,SSW,200,7.0,-999.0,58,0.00,,,-99.99,,2013-04-20 00:32:00,
2013-04-19 18:21:00,66.0,48.0,29.97,NNW,330,2.0,-999.0,53,0.00,,,-99.99,,2013-04-20 01:21:00,
2013-04-19 18:32:00,66.0,48.0,29.97,NNW,330,2.0,-999.0,53,0.00,,,-99.99,,2013-04-20 01:32:00,
2013-04-19 19:21:00,66.0,48.0,29.97,NW,310,3.0,-999.0,52,0.00,,,-99.99,,2013-04-20 02:21:00,
2013-04-19 19:32:00,66.0,48.0,29.97,NW,310,3.0,-999.0,52,0.00,,,-99.99,,2013-04-20 02:32:00,
2013-04-19 20:21:00,64.0,48.0,29.96,SW,230,6.0,-999.0,57,0.00,,,-99.99,,2013-04-20 03:21:00,
2013-04-19 20:33:00,64.0,48.0,29.96,SW,230,6.0,-999.0,57,0.00,,,-99.99,,2013-04-20 03:33:00,
2013-04-19 21:23:00,63.0,52.0,29.97,NW,320,12.0,-999.0,67,0.00,,,-99.99,,2013-04-20 04:23:00,
2013-04-19 21:32:00,63.0,52.0,29.97,NW,320,12.0,-999.0,67,0.00,,,-99.99,,2013-04-20 04:32:00,
2013-04-19 22:22:00,61.0,54.0,29.98,WNW,290,12.0,-999.0,77,0.00,,,-99.99,,2013-04-20 05:22:00,
2013-04-19 22:32:00,61.0,54.0,29.98,WNW,290,12.0,-999.0,77,0.00,,,-99.99,,2013-04-20 05:32:00,
2013-04-19 23:21:00,60.0,54.0,29.97,NNW,330,10.0,-999.0,82,0.00,,,-99.99,,2013-04-20 06:21:00,
2013-04-19 23:32:00,60.0,54.0,29.97,NNW,330,10.0,-999.0,82,0.00,,,-99.99,,2013-04-20 06:32:00,